sensor_id;sensor_type;location;lat;lon;timestamp;P1;durP1;ratioP1;P2;durP2;ratioP2
67193;SDS011;54121;53.508;49.422;2023-03-14T00:01:08;0.60;;;0.50;;
67193;SDS011;54121;53.508;49.422;2023-03-14T00:03:35;0.65;;;0.50;;
67193;SDS011;54121;53.508;49.422;2023-03-14T00:06:02;3.30;;;0.68;;
67193;SDS011;54121;53.508;49.422;2023-03-14T00:08:30;1.40;;;0.63;;
67193;SDS011;54121;53.508;49.422;2023-03-14T00:10:57;0.88;;;0.60;;
67193;SDS011;54121;53.508;49.422;2023-03-14T00:13:24;1.27;;;0.70;;
67193;SDS011;54121;53.508;49.422;2023-03-14T00:15:51;1.17;;;0.70;;
67193;SDS011;54121;53.508;49.422;2023-03-14T00:18:20;1.50;;;0.55;;
67193;SDS011;54121;53.508;49.422;2023-03-14T00:20:46;1.90;;;0.70;;
67193;SDS011;54121;53.508;49.422;2023-03-14T00:23:13;0.52;;;0.50;;
67193;SDS011;54121;53.508;49.422;2023-03-14T00:25:39;0.63;;;0.38;;
67193;SDS011;54121;53.508;49.422;2023-03-14T00:28:06;0.75;;;0.50;;
67193;SDS011;54121;53.508;49.422;2023-03-14T00:30:32;0.75;;;0.40;;
67193;SDS011;54121;53.508;49.422;2023-03-14T00:32:59;0.55;;;0.40;;
67193;SDS011;54121;53.508;49.422;2023-03-14T00:35:25;1.23;;;0.40;;
67193;SDS011;54121;53.508;49.422;2023-03-14T00:37:53;0.88;;;0.60;;
67193;SDS011;54121;53.508;49.422;2023-03-14T00:40:20;1.17;;;0.40;;
67193;SDS011;54121;53.508;49.422;2023-03-14T00:42:46;2.25;;;0.80;;
67193;SDS011;54121;53.508;49.422;2023-03-14T00:45:13;1.02;;;0.40;;
67193;SDS011;54121;53.508;49.422;2023-03-14T00:47:39;0.80;;;0.70;;
67193;SDS011;54121;53.508;49.422;2023-03-14T00:50:11;1.42;;;0.60;;
67193;SDS011;54121;53.508;49.422;2023-03-14T00:52:38;0.65;;;0.60;;
67193;SDS011;54121;53.508;49.422;2023-03-14T00:55:05;0.52;;;0.40;;
67193;SDS011;54121;53.508;49.422;2023-03-14T00:57:32;0.50;;;0.30;;
67193;SDS011;54121;53.508;49.422;2023-03-14T00:59:59;1.52;;;0.70;;
67193;SDS011;54121;53.508;49.422;2023-03-14T01:02:26;1.60;;;0.57;;
67193;SDS011;54121;53.508;49.422;2023-03-14T01:04:54;1.27;;;0.70;;
67193;SDS011;54121;53.508;49.422;2023-03-14T01:07:20;0.90;;;0.50;;
67193;SDS011;54121;53.508;49.422;2023-03-14T01:09:50;1.58;;;0.50;;
67193;SDS011;54121;53.508;49.422;2023-03-14T01:14:44;0.45;;;0.45;;
67193;SDS011;54121;53.508;49.422;2023-03-14T01:17:11;2.88;;;0.70;;
67193;SDS011;54121;53.508;49.422;2023-03-14T01:19:38;0.68;;;0.60;;
67193;SDS011;54121;53.508;49.422;2023-03-14T01:22:05;1.17;;;0.55;;
67193;SDS011;54121;53.508;49.422;2023-03-14T01:24:32;2.38;;;0.80;;
67193;SDS011;54121;53.508;49.422;2023-03-14T01:26:59;1.27;;;0.75;;
67193;SDS011;54121;53.508;49.422;2023-03-14T01:29:26;3.47;;;0.55;;
67193;SDS011;54121;53.508;49.422;2023-03-14T01:31:52;2.17;;;0.75;;
67193;SDS011;54121;53.508;49.422;2023-03-14T01:34:19;0.77;;;0.57;;
67193;SDS011;54121;53.508;49.422;2023-03-14T01:36:46;1.70;;;0.50;;
67193;SDS011;54121;53.508;49.422;2023-03-14T01:39:13;1.77;;;0.50;;
67193;SDS011;54121;53.508;49.422;2023-03-14T01:41:40;1.08;;;0.68;;
67193;SDS011;54121;53.508;49.422;2023-03-14T01:44:10;1.33;;;0.50;;
67193;SDS011;54121;53.508;49.422;2023-03-14T01:46:44;1.27;;;0.50;;
67193;SDS011;54121;53.508;49.422;2023-03-14T01:54:49;4.13;;;1.00;;
67193;SDS011;54121;53.508;49.422;2023-03-14T01:57:28;0.52;;;0.45;;
67193;SDS011;54121;53.508;49.422;2023-03-14T02:02:45;1.80;;;0.60;;
67193;SDS011;54121;53.508;49.422;2023-03-14T02:05:23;0.90;;;0.50;;
67193;SDS011;54121;53.508;49.422;2023-03-14T02:07:55;0.93;;;0.50;;
67193;SDS011;54121;53.508;49.422;2023-03-14T02:10:24;1.13;;;0.60;;
67193;SDS011;54121;53.508;49.422;2023-03-14T02:12:53;0.60;;;0.47;;
67193;SDS011;54121;53.508;49.422;2023-03-14T02:15:22;1.35;;;0.73;;
67193;SDS011;54121;53.508;49.422;2023-03-14T02:17:49;0.80;;;0.57;;
67193;SDS011;54121;53.508;49.422;2023-03-14T02:23:04;0.80;;;0.50;;
67193;SDS011;54121;53.508;49.422;2023-03-14T02:28:24;0.28;;;0.20;;
67193;SDS011;54121;53.508;49.422;2023-03-14T02:30:50;0.10;;;0.10;;
67193;SDS011;54121;53.508;49.422;2023-03-14T02:33:18;0.55;;;0.40;;
67193;SDS011;54121;53.508;49.422;2023-03-14T02:35:52;0.80;;;0.30;;
67193;SDS011;54121;53.508;49.422;2023-03-14T02:38:24;0.28;;;0.20;;
67193;SDS011;54121;53.508;49.422;2023-03-14T02:40:54;0.70;;;0.38;;
67193;SDS011;54121;53.508;49.422;2023-03-14T02:43:20;1.40;;;0.40;;
67193;SDS011;54121;53.508;49.422;2023-03-14T02:45:48;0.80;;;0.25;;
67193;SDS011;54121;53.508;49.422;2023-03-14T02:48:16;1.00;;;0.63;;
67193;SDS011;54121;53.508;49.422;2023-03-14T02:53:25;1.17;;;0.50;;
67193;SDS011;54121;53.508;49.422;2023-03-14T02:55:54;0.20;;;0.20;;
67193;SDS011;54121;53.508;49.422;2023-03-14T02:58:21;0.40;;;0.20;;
67193;SDS011;54121;53.508;49.422;2023-03-14T03:00:48;2.63;;;0.32;;
67193;SDS011;54121;53.508;49.422;2023-03-14T03:03:15;0.30;;;0.30;;
67193;SDS011;54121;53.508;49.422;2023-03-14T03:05:42;0.90;;;0.75;;
67193;SDS011;54121;53.508;49.422;2023-03-14T03:08:09;0.47;;;0.30;;
67193;SDS011;54121;53.508;49.422;2023-03-14T03:10:36;2.45;;;0.47;;
67193;SDS011;54121;53.508;49.422;2023-03-14T03:13:03;0.90;;;0.65;;
67193;SDS011;54121;53.508;49.422;2023-03-14T03:15:29;1.23;;;0.70;;
67193;SDS011;54121;53.508;49.422;2023-03-14T03:17:56;0.45;;;0.43;;
67193;SDS011;54121;53.508;49.422;2023-03-14T03:20:22;0.60;;;0.32;;
67193;SDS011;54121;53.508;49.422;2023-03-14T03:22:49;2.38;;;0.32;;
67193;SDS011;54121;53.508;49.422;2023-03-14T03:25:15;2.88;;;0.77;;
67193;SDS011;54121;53.508;49.422;2023-03-14T03:27:42;0.20;;;0.20;;
67193;SDS011;54121;53.508;49.422;2023-03-14T03:30:09;1.33;;;0.60;;
67193;SDS011;54121;53.508;49.422;2023-03-14T03:32:36;1.65;;;0.50;;
67193;SDS011;54121;53.508;49.422;2023-03-14T03:35:03;0.22;;;0.20;;
67193;SDS011;54121;53.508;49.422;2023-03-14T03:37:31;0.40;;;0.40;;
67193;SDS011;54121;53.508;49.422;2023-03-14T03:39:57;0.50;;;0.40;;
67193;SDS011;54121;53.508;49.422;2023-03-14T03:42:26;1.55;;;0.30;;
67193;SDS011;54121;53.508;49.422;2023-03-14T03:44:53;0.22;;;0.20;;
67193;SDS011;54121;53.508;49.422;2023-03-14T03:47:19;1.95;;;0.82;;
67193;SDS011;54121;53.508;49.422;2023-03-14T03:49:46;5.25;;;0.43;;
67193;SDS011;54121;53.508;49.422;2023-03-14T03:52:13;2.28;;;0.40;;
67193;SDS011;54121;53.508;49.422;2023-03-14T03:54:40;1.23;;;0.65;;
67193;SDS011;54121;53.508;49.422;2023-03-14T03:57:06;0.93;;;0.80;;
67193;SDS011;54121;53.508;49.422;2023-03-14T03:59:33;2.35;;;0.75;;
67193;SDS011;54121;53.508;49.422;2023-03-14T04:01:59;4.65;;;1.13;;
67193;SDS011;54121;53.508;49.422;2023-03-14T04:04:26;0.30;;;0.30;;
67193;SDS011;54121;53.508;49.422;2023-03-14T04:06:53;1.52;;;0.60;;
67193;SDS011;54121;53.508;49.422;2023-03-14T04:09:19;2.67;;;0.88;;
67193;SDS011;54121;53.508;49.422;2023-03-14T04:11:46;0.85;;;0.45;;
67193;SDS011;54121;53.508;49.422;2023-03-14T04:14:12;0.38;;;0.30;;
67193;SDS011;54121;53.508;49.422;2023-03-14T04:16:39;1.13;;;0.43;;
67193;SDS011;54121;53.508;49.422;2023-03-14T04:19:06;0.47;;;0.40;;
67193;SDS011;54121;53.508;49.422;2023-03-14T04:21:32;1.55;;;0.50;;
67193;SDS011;54121;53.508;49.422;2023-03-14T04:23:59;0.85;;;0.47;;
67193;SDS011;54121;53.508;49.422;2023-03-14T04:26:26;1.98;;;0.70;;
67193;SDS011;54121;53.508;49.422;2023-03-14T04:28:52;0.80;;;0.80;;
67193;SDS011;54121;53.508;49.422;2023-03-14T04:31:20;1.83;;;0.90;;
67193;SDS011;54121;53.508;49.422;2023-03-14T04:33:47;2.85;;;0.70;;
67193;SDS011;54121;53.508;49.422;2023-03-14T04:36:14;1.35;;;0.70;;
67193;SDS011;54121;53.508;49.422;2023-03-14T04:38:41;0.60;;;0.50;;
67193;SDS011;54121;53.508;49.422;2023-03-14T04:41:07;5.35;;;0.43;;
67193;SDS011;54121;53.508;49.422;2023-03-14T04:43:34;1.67;;;0.40;;
67193;SDS011;54121;53.508;49.422;2023-03-14T04:46:01;1.08;;;0.70;;
67193;SDS011;54121;53.508;49.422;2023-03-14T04:48:27;0.50;;;0.50;;
67193;SDS011;54121;53.508;49.422;2023-03-14T04:50:55;0.63;;;0.47;;
67193;SDS011;54121;53.508;49.422;2023-03-14T04:53:21;1.08;;;0.68;;
67193;SDS011;54121;53.508;49.422;2023-03-14T04:55:49;1.52;;;0.68;;
67193;SDS011;54121;53.508;49.422;2023-03-14T04:58:19;1.20;;;0.60;;
67193;SDS011;54121;53.508;49.422;2023-03-14T05:00:46;0.95;;;0.80;;
67193;SDS011;54121;53.508;49.422;2023-03-14T05:03:14;2.03;;;0.90;;
67193;SDS011;54121;53.508;49.422;2023-03-14T05:05:42;1.75;;;1.00;;
67193;SDS011;54121;53.508;49.422;2023-03-14T05:08:08;1.10;;;0.55;;
67193;SDS011;54121;53.508;49.422;2023-03-14T05:10:35;3.58;;;0.80;;
67193;SDS011;54121;53.508;49.422;2023-03-14T05:13:02;11.13;;;1.17;;
67193;SDS011;54121;53.508;49.422;2023-03-14T05:15:29;1.40;;;0.90;;
67193;SDS011;54121;53.508;49.422;2023-03-14T05:17:56;4.25;;;1.02;;
67193;SDS011;54121;53.508;49.422;2023-03-14T05:20:22;1.20;;;0.80;;
67193;SDS011;54121;53.508;49.422;2023-03-14T05:22:49;1.75;;;1.08;;
67193;SDS011;54121;53.508;49.422;2023-03-14T05:25:15;3.30;;;0.90;;
67193;SDS011;54121;53.508;49.422;2023-03-14T05:27:42;9.82;;;1.48;;
67193;SDS011;54121;53.508;49.422;2023-03-14T05:30:09;6.50;;;2.22;;
67193;SDS011;54121;53.508;49.422;2023-03-14T05:32:36;1.52;;;1.02;;
67193;SDS011;54121;53.508;49.422;2023-03-14T05:35:02;1.45;;;0.80;;
67193;SDS011;54121;53.508;49.422;2023-03-14T05:37:29;1.83;;;1.10;;
67193;SDS011;54121;53.508;49.422;2023-03-14T05:39:55;2.30;;;1.05;;
67193;SDS011;54121;53.508;49.422;2023-03-14T05:42:22;2.25;;;1.42;;
67193;SDS011;54121;53.508;49.422;2023-03-14T05:44:48;1.20;;;1.10;;
67193;SDS011;54121;53.508;49.422;2023-03-14T05:47:14;1.55;;;1.00;;
67193;SDS011;54121;53.508;49.422;2023-03-14T05:49:41;2.53;;;1.30;;
67193;SDS011;54121;53.508;49.422;2023-03-14T05:52:08;4.88;;;1.00;;
67193;SDS011;54121;53.508;49.422;2023-03-14T05:54:35;1.13;;;0.80;;
67193;SDS011;54121;53.508;49.422;2023-03-14T05:57:01;3.13;;;1.10;;
67193;SDS011;54121;53.508;49.422;2023-03-14T05:59:28;1.92;;;1.10;;
67193;SDS011;54121;53.508;49.422;2023-03-14T06:01:55;3.75;;;1.73;;
67193;SDS011;54121;53.508;49.422;2023-03-14T06:04:22;3.45;;;1.55;;
67193;SDS011;54121;53.508;49.422;2023-03-14T06:06:48;3.05;;;1.20;;
67193;SDS011;54121;53.508;49.422;2023-03-14T06:09:15;9.40;;;1.10;;
67193;SDS011;54121;53.508;49.422;2023-03-14T06:11:42;5.00;;;1.60;;
67193;SDS011;54121;53.508;49.422;2023-03-14T06:14:09;3.15;;;1.42;;
67193;SDS011;54121;53.508;49.422;2023-03-14T06:16:35;1.20;;;1.10;;
67193;SDS011;54121;53.508;49.422;2023-03-14T06:19:02;2.40;;;1.60;;
67193;SDS011;54121;53.508;49.422;2023-03-14T06:21:28;2.83;;;1.70;;
67193;SDS011;54121;53.508;49.422;2023-03-14T06:23:55;1.98;;;1.20;;
67193;SDS011;54121;53.508;49.422;2023-03-14T06:26:22;2.15;;;1.20;;
67193;SDS011;54121;53.508;49.422;2023-03-14T06:28:49;2.33;;;1.40;;
67193;SDS011;54121;53.508;49.422;2023-03-14T06:31:16;2.83;;;1.65;;
67193;SDS011;54121;53.508;49.422;2023-03-14T06:33:43;5.63;;;2.13;;
67193;SDS011;54121;53.508;49.422;2023-03-14T06:36:10;4.03;;;1.83;;
67193;SDS011;54121;53.508;49.422;2023-03-14T06:38:37;3.20;;;1.70;;
67193;SDS011;54121;53.508;49.422;2023-03-14T06:41:04;5.82;;;1.83;;
67193;SDS011;54121;53.508;49.422;2023-03-14T06:43:32;3.38;;;2.20;;
67193;SDS011;54121;53.508;49.422;2023-03-14T06:45:59;2.97;;;1.60;;
67193;SDS011;54121;53.508;49.422;2023-03-14T06:48:25;2.17;;;1.50;;
67193;SDS011;54121;53.508;49.422;2023-03-14T06:50:52;7.30;;;1.95;;
67193;SDS011;54121;53.508;49.422;2023-03-14T06:53:19;1.77;;;1.23;;
67193;SDS011;54121;53.508;49.422;2023-03-14T06:55:46;3.13;;;1.50;;
67193;SDS011;54121;53.508;49.422;2023-03-14T06:58:12;2.65;;;1.40;;
67193;SDS011;54121;53.508;49.422;2023-03-14T07:00:39;3.45;;;1.67;;
67193;SDS011;54121;53.508;49.422;2023-03-14T07:03:05;2.78;;;1.70;;
67193;SDS011;54121;53.508;49.422;2023-03-14T07:05:32;4.05;;;1.42;;
67193;SDS011;54121;53.508;49.422;2023-03-14T07:07:59;2.72;;;1.70;;
67193;SDS011;54121;53.508;49.422;2023-03-14T07:10:25;3.65;;;1.60;;
67193;SDS011;54121;53.508;49.422;2023-03-14T07:12:52;4.82;;;1.65;;
67193;SDS011;54121;53.508;49.422;2023-03-14T07:15:19;2.15;;;1.40;;
67193;SDS011;54121;53.508;49.422;2023-03-14T07:17:46;3.65;;;1.50;;
67193;SDS011;54121;53.508;49.422;2023-03-14T07:20:14;3.97;;;1.02;;
67193;SDS011;54121;53.508;49.422;2023-03-14T07:22:41;2.65;;;1.10;;
67193;SDS011;54121;53.508;49.422;2023-03-14T07:25:07;3.03;;;1.40;;
67193;SDS011;54121;53.508;49.422;2023-03-14T07:27:37;1.42;;;1.08;;
67193;SDS011;54121;53.508;49.422;2023-03-14T07:30:04;1.60;;;1.15;;
67193;SDS011;54121;53.508;49.422;2023-03-14T07:32:31;2.15;;;1.10;;
67193;SDS011;54121;53.508;49.422;2023-03-14T07:34:58;2.90;;;1.10;;
67193;SDS011;54121;53.508;49.422;2023-03-14T07:37:25;1.58;;;1.02;;
67193;SDS011;54121;53.508;49.422;2023-03-14T07:39:51;1.00;;;0.90;;
67193;SDS011;54121;53.508;49.422;2023-03-14T07:42:18;1.00;;;0.90;;
67193;SDS011;54121;53.508;49.422;2023-03-14T07:44:44;1.08;;;0.98;;
67193;SDS011;54121;53.508;49.422;2023-03-14T07:47:11;1.52;;;1.00;;
67193;SDS011;54121;53.508;49.422;2023-03-14T07:49:38;1.67;;;1.20;;
67193;SDS011;54121;53.508;49.422;2023-03-14T07:52:05;2.28;;;1.25;;
67193;SDS011;54121;53.508;49.422;2023-03-14T07:54:31;1.98;;;1.10;;
67193;SDS011;54121;53.508;49.422;2023-03-14T07:56:58;2.92;;;0.90;;
67193;SDS011;54121;53.508;49.422;2023-03-14T07:59:26;0.73;;;0.73;;
67193;SDS011;54121;53.508;49.422;2023-03-14T08:01:53;12.15;;;1.70;;
67193;SDS011;54121;53.508;49.422;2023-03-14T08:04:20;1.73;;;0.90;;
67193;SDS011;54121;53.508;49.422;2023-03-14T08:06:46;1.50;;;0.85;;
67193;SDS011;54121;53.508;49.422;2023-03-14T08:09:13;1.52;;;0.95;;
67193;SDS011;54121;53.508;49.422;2023-03-14T08:11:39;0.98;;;0.88;;
67193;SDS011;54121;53.508;49.422;2023-03-14T08:14:06;1.63;;;0.98;;
67193;SDS011;54121;53.508;49.422;2023-03-14T08:16:32;1.88;;;1.30;;
67193;SDS011;54121;53.508;49.422;2023-03-14T08:18:59;1.35;;;1.10;;
67193;SDS011;54121;53.508;49.422;2023-03-14T08:21:25;0.93;;;0.80;;
67193;SDS011;54121;53.508;49.422;2023-03-14T08:23:52;2.08;;;1.00;;
67193;SDS011;54121;53.508;49.422;2023-03-14T08:26:18;2.65;;;0.98;;
67193;SDS011;54121;53.508;49.422;2023-03-14T08:28:45;1.02;;;0.80;;
67193;SDS011;54121;53.508;49.422;2023-03-14T08:31:11;2.65;;;0.75;;
67193;SDS011;54121;53.508;49.422;2023-03-14T08:33:38;0.65;;;0.65;;
67193;SDS011;54121;53.508;49.422;2023-03-14T08:36:04;2.42;;;1.38;;
67193;SDS011;54121;53.508;49.422;2023-03-14T08:38:31;1.42;;;0.93;;
67193;SDS011;54121;53.508;49.422;2023-03-14T08:40:58;1.50;;;1.00;;
67193;SDS011;54121;53.508;49.422;2023-03-14T08:43:26;3.83;;;1.23;;
67193;SDS011;54121;53.508;49.422;2023-03-14T08:45:53;1.80;;;1.10;;
67193;SDS011;54121;53.508;49.422;2023-03-14T08:48:22;2.50;;;1.17;;
67193;SDS011;54121;53.508;49.422;2023-03-14T08:50:49;2.28;;;0.85;;
67193;SDS011;54121;53.508;49.422;2023-03-14T08:53:16;1.38;;;0.88;;
67193;SDS011;54121;53.508;49.422;2023-03-14T08:55:44;1.67;;;0.82;;
67193;SDS011;54121;53.508;49.422;2023-03-14T08:58:10;1.63;;;0.80;;
67193;SDS011;54121;53.508;49.422;2023-03-14T09:00:37;1.58;;;1.00;;
67193;SDS011;54121;53.508;49.422;2023-03-14T09:03:04;3.10;;;1.00;;
67193;SDS011;54121;53.508;49.422;2023-03-14T09:05:32;1.70;;;0.93;;
67193;SDS011;54121;53.508;49.422;2023-03-14T09:08:00;1.10;;;0.90;;
67193;SDS011;54121;53.508;49.422;2023-03-14T09:10:27;1.35;;;0.75;;
67193;SDS011;54121;53.508;49.422;2023-03-14T09:12:54;0.65;;;0.65;;
67193;SDS011;54121;53.508;49.422;2023-03-14T09:15:21;1.42;;;0.70;;
67193;SDS011;54121;53.508;49.422;2023-03-14T09:17:48;2.65;;;1.25;;
67193;SDS011;54121;53.508;49.422;2023-03-14T09:20:16;2.20;;;1.08;;
67193;SDS011;54121;53.508;49.422;2023-03-14T09:22:42;1.77;;;1.00;;
67193;SDS011;54121;53.508;49.422;2023-03-14T09:25:09;2.50;;;0.90;;
67193;SDS011;54121;53.508;49.422;2023-03-14T09:27:37;0.88;;;0.65;;
67193;SDS011;54121;53.508;49.422;2023-03-14T09:30:04;2.15;;;0.88;;
67193;SDS011;54121;53.508;49.422;2023-03-14T09:32:31;1.17;;;0.75;;
67193;SDS011;54121;53.508;49.422;2023-03-14T09:34:58;1.10;;;0.90;;
67193;SDS011;54121;53.508;49.422;2023-03-14T09:37:28;2.67;;;1.10;;
67193;SDS011;54121;53.508;49.422;2023-03-14T09:39:55;0.43;;;0.40;;
67193;SDS011;54121;53.508;49.422;2023-03-14T09:42:23;1.98;;;0.85;;
67193;SDS011;54121;53.508;49.422;2023-03-14T09:47:22;1.75;;;0.70;;
67193;SDS011;54121;53.508;49.422;2023-03-14T09:49:49;1.67;;;0.68;;
67193;SDS011;54121;53.508;49.422;2023-03-14T09:52:32;1.38;;;0.75;;
67193;SDS011;54121;53.508;49.422;2023-03-14T09:55:04;2.95;;;0.90;;
67193;SDS011;54121;53.508;49.422;2023-03-14T09:57:38;2.25;;;1.00;;
67193;SDS011;54121;53.508;49.422;2023-03-14T10:00:12;8.23;;;1.30;;
67193;SDS011;54121;53.508;49.422;2023-03-14T10:02:45;1.95;;;0.85;;
67193;SDS011;54121;53.508;49.422;2023-03-14T10:05:18;2.22;;;0.82;;
67193;SDS011;54121;53.508;49.422;2023-03-14T10:07:48;0.73;;;0.47;;
67193;SDS011;54121;53.508;49.422;2023-03-14T10:10:23;1.60;;;0.70;;
67193;SDS011;54121;53.508;49.422;2023-03-14T10:12:56;3.47;;;1.13;;
67193;SDS011;54121;53.508;49.422;2023-03-14T10:18:12;2.10;;;0.88;;
67193;SDS011;54121;53.508;49.422;2023-03-14T10:20:41;8.85;;;0.82;;
67193;SDS011;54121;53.508;49.422;2023-03-14T10:25:45;2.90;;;0.70;;
67193;SDS011;54121;53.508;49.422;2023-03-14T10:28:27;1.23;;;0.88;;
67193;SDS011;54121;53.508;49.422;2023-03-14T10:30:56;1.73;;;0.90;;
67193;SDS011;54121;53.508;49.422;2023-03-14T10:33:25;1.55;;;0.68;;
67193;SDS011;54121;53.508;49.422;2023-03-14T10:35:57;2.90;;;0.80;;
67193;SDS011;54121;53.508;49.422;2023-03-14T10:38:31;2.25;;;0.90;;
67193;SDS011;54121;53.508;49.422;2023-03-14T10:41:00;0.85;;;0.82;;
67193;SDS011;54121;53.508;49.422;2023-03-14T10:43:34;2.65;;;0.80;;
67193;SDS011;54121;53.508;49.422;2023-03-14T10:46:08;5.68;;;1.02;;
67193;SDS011;54121;53.508;49.422;2023-03-14T10:48:40;3.50;;;1.00;;
67193;SDS011;54121;53.508;49.422;2023-03-14T10:53:44;1.33;;;1.05;;
67193;SDS011;54121;53.508;49.422;2023-03-14T10:56:14;4.55;;;1.20;;
67193;SDS011;54121;53.508;49.422;2023-03-14T10:58:46;3.22;;;0.93;;
67193;SDS011;54121;53.508;49.422;2023-03-14T11:04:01;3.38;;;0.90;;
67193;SDS011;54121;53.508;49.422;2023-03-14T11:06:58;1.05;;;0.80;;
67193;SDS011;54121;53.508;49.422;2023-03-14T11:14:43;1.27;;;1.13;;
67193;SDS011;54121;53.508;49.422;2023-03-14T11:17:18;1.70;;;1.00;;
67193;SDS011;54121;53.508;49.422;2023-03-14T11:22:41;2.28;;;1.00;;
67193;SDS011;54121;53.508;49.422;2023-03-14T11:25:31;1.45;;;1.20;;
67193;SDS011;54121;53.508;49.422;2023-03-14T11:28:16;1.23;;;0.70;;
67193;SDS011;54121;53.508;49.422;2023-03-14T11:31:18;1.13;;;0.90;;
67193;SDS011;54121;53.508;49.422;2023-03-14T11:36:51;1.00;;;0.88;;
67193;SDS011;54121;53.508;49.422;2023-03-14T11:39:40;1.50;;;0.82;;
67193;SDS011;54121;53.508;49.422;2023-03-14T11:42:14;1.85;;;0.77;;
67193;SDS011;54121;53.508;49.422;2023-03-14T11:44:44;3.58;;;0.70;;
67193;SDS011;54121;53.508;49.422;2023-03-14T11:50:16;1.65;;;0.80;;
67193;SDS011;54121;53.508;49.422;2023-03-14T11:55:24;2.00;;;0.85;;
67193;SDS011;54121;53.508;49.422;2023-03-14T12:00:52;1.13;;;0.50;;
67193;SDS011;54121;53.508;49.422;2023-03-14T12:03:24;0.52;;;0.47;;
67193;SDS011;54121;53.508;49.422;2023-03-14T12:09:12;1.38;;;0.77;;
67193;SDS011;54121;53.508;49.422;2023-03-14T12:11:53;0.80;;;0.55;;
67193;SDS011;54121;53.508;49.422;2023-03-14T12:17:05;1.75;;;0.55;;
67193;SDS011;54121;53.508;49.422;2023-03-14T12:19:36;3.08;;;1.20;;
67193;SDS011;54121;53.508;49.422;2023-03-14T12:22:08;3.50;;;1.23;;
67193;SDS011;54121;53.508;49.422;2023-03-14T12:24:48;0.95;;;0.73;;
67193;SDS011;54121;53.508;49.422;2023-03-14T12:30:23;1.77;;;1.02;;
67193;SDS011;54121;53.508;49.422;2023-03-14T12:33:38;3.90;;;1.20;;
67193;SDS011;54121;53.508;49.422;2023-03-14T12:35:47;1.38;;;1.00;;
67193;SDS011;54121;53.508;49.422;2023-03-14T12:38:43;3.90;;;1.30;;
67193;SDS011;54121;53.508;49.422;2023-03-14T12:41:38;4.20;;;1.10;;
67193;SDS011;54121;53.508;49.422;2023-03-14T12:46:57;2.55;;;1.38;;
67193;SDS011;54121;53.508;49.422;2023-03-14T12:49:53;1.65;;;1.08;;
67193;SDS011;54121;53.508;49.422;2023-03-14T12:52:36;7.65;;;0.98;;
67193;SDS011;54121;53.508;49.422;2023-03-14T12:57:45;1.42;;;0.90;;
67193;SDS011;54121;53.508;49.422;2023-03-14T13:00:35;2.20;;;1.27;;
67193;SDS011;54121;53.508;49.422;2023-03-14T13:05:54;0.93;;;0.38;;
67193;SDS011;54121;53.508;49.422;2023-03-14T13:11:20;0.85;;;0.57;;
67193;SDS011;54121;53.508;49.422;2023-03-14T13:13:49;2.10;;;0.93;;
67193;SDS011;54121;53.508;49.422;2023-03-14T13:16:23;1.70;;;0.80;;
67193;SDS011;54121;53.508;49.422;2023-03-14T13:21:51;3.67;;;1.25;;
67193;SDS011;54121;53.508;49.422;2023-03-14T13:24:27;2.08;;;0.70;;
67193;SDS011;54121;53.508;49.422;2023-03-14T13:26:56;0.88;;;0.60;;
67193;SDS011;54121;53.508;49.422;2023-03-14T13:29:27;1.40;;;0.80;;
67193;SDS011;54121;53.508;49.422;2023-03-14T13:31:59;0.70;;;0.60;;
67193;SDS011;54121;53.508;49.422;2023-03-14T13:34:28;0.93;;;0.50;;
67193;SDS011;54121;53.508;49.422;2023-03-14T13:36:57;1.40;;;0.60;;
67193;SDS011;54121;53.508;49.422;2023-03-14T13:39:24;3.90;;;0.70;;
67193;SDS011;54121;53.508;49.422;2023-03-14T13:41:55;2.10;;;0.70;;
67193;SDS011;54121;53.508;49.422;2023-03-14T13:47:01;1.73;;;0.80;;
67193;SDS011;54121;53.508;49.422;2023-03-14T13:49:31;2.20;;;0.50;;
67193;SDS011;54121;53.508;49.422;2023-03-14T13:52:01;1.63;;;0.80;;
67193;SDS011;54121;53.508;49.422;2023-03-14T13:54:29;0.90;;;0.60;;
67193;SDS011;54121;53.508;49.422;2023-03-14T13:57:00;1.85;;;0.80;;
67193;SDS011;54121;53.508;49.422;2023-03-14T13:59:32;1.17;;;0.50;;
67193;SDS011;54121;53.508;49.422;2023-03-14T14:02:01;1.17;;;0.70;;
67193;SDS011;54121;53.508;49.422;2023-03-14T14:04:33;1.33;;;0.77;;
67193;SDS011;54121;53.508;49.422;2023-03-14T14:07:06;1.25;;;0.75;;
67193;SDS011;54121;53.508;49.422;2023-03-14T14:09:40;2.30;;;0.85;;
67193;SDS011;54121;53.508;49.422;2023-03-14T14:12:13;0.93;;;0.63;;
67193;SDS011;54121;53.508;49.422;2023-03-14T14:14:47;3.03;;;0.75;;
67193;SDS011;54121;53.508;49.422;2023-03-14T14:17:21;5.05;;;0.70;;
67193;SDS011;54121;53.508;49.422;2023-03-14T14:20:04;1.13;;;0.60;;
67193;SDS011;54121;53.508;49.422;2023-03-14T14:22:34;0.63;;;0.32;;
67193;SDS011;54121;53.508;49.422;2023-03-14T14:25:01;0.95;;;0.65;;
67193;SDS011;54121;53.508;49.422;2023-03-14T14:27:33;2.35;;;0.52;;
67193;SDS011;54121;53.508;49.422;2023-03-14T14:30:05;1.08;;;0.60;;
67193;SDS011;54121;53.508;49.422;2023-03-14T14:32:44;1.08;;;0.70;;
67193;SDS011;54121;53.508;49.422;2023-03-14T14:38:16;0.95;;;0.50;;
67193;SDS011;54121;53.508;49.422;2023-03-14T14:40:44;0.50;;;0.50;;
67193;SDS011;54121;53.508;49.422;2023-03-14T14:43:20;14.45;;;0.98;;
67193;SDS011;54121;53.508;49.422;2023-03-14T14:45:50;1.48;;;0.70;;
67193;SDS011;54121;53.508;49.422;2023-03-14T14:48:21;0.93;;;0.68;;
67193;SDS011;54121;53.508;49.422;2023-03-14T14:50:56;0.82;;;0.70;;
67193;SDS011;54121;53.508;49.422;2023-03-14T14:55:58;3.75;;;0.93;;
67193;SDS011;54121;53.508;49.422;2023-03-14T14:58:36;2.55;;;0.63;;
67193;SDS011;54121;53.508;49.422;2023-03-14T15:03:41;2.47;;;0.90;;
67193;SDS011;54121;53.508;49.422;2023-03-14T15:06:10;1.07;;;0.63;;
67193;SDS011;54121;53.508;49.422;2023-03-14T15:08:38;1.98;;;0.73;;
67193;SDS011;54121;53.508;49.422;2023-03-14T15:11:08;1.52;;;0.70;;
67193;SDS011;54121;53.508;49.422;2023-03-14T15:13:43;2.92;;;0.90;;
67193;SDS011;54121;53.508;49.422;2023-03-14T15:16:11;1.08;;;0.50;;
67193;SDS011;54121;53.508;49.422;2023-03-14T15:18:39;1.33;;;0.70;;
67193;SDS011;54121;53.508;49.422;2023-03-14T15:21:09;1.65;;;0.95;;
67193;SDS011;54121;53.508;49.422;2023-03-14T15:23:38;0.85;;;0.60;;
67193;SDS011;54121;53.508;49.422;2023-03-14T15:26:10;1.00;;;0.77;;
67193;SDS011;54121;53.508;49.422;2023-03-14T15:28:40;1.35;;;0.77;;
67193;SDS011;54121;53.508;49.422;2023-03-14T15:31:10;1.10;;;0.60;;
67193;SDS011;54121;53.508;49.422;2023-03-14T15:33:38;1.58;;;1.00;;
67193;SDS011;54121;53.508;49.422;2023-03-14T15:36:06;2.03;;;0.98;;
67193;SDS011;54121;53.508;49.422;2023-03-14T15:38:48;1.27;;;0.90;;
67193;SDS011;54121;53.508;49.422;2023-03-14T15:41:17;1.63;;;1.00;;
67193;SDS011;54121;53.508;49.422;2023-03-14T15:43:45;1.35;;;0.88;;
67193;SDS011;54121;53.508;49.422;2023-03-14T15:46:13;1.95;;;0.73;;
67193;SDS011;54121;53.508;49.422;2023-03-14T15:48:40;1.42;;;0.82;;
67193;SDS011;54121;53.508;49.422;2023-03-14T15:51:07;1.00;;;0.77;;
67193;SDS011;54121;53.508;49.422;2023-03-14T15:53:34;2.05;;;1.00;;
67193;SDS011;54121;53.508;49.422;2023-03-14T15:56:04;1.70;;;1.00;;
67193;SDS011;54121;53.508;49.422;2023-03-14T15:58:33;2.97;;;1.15;;
67193;SDS011;54121;53.508;49.422;2023-03-14T16:01:02;3.38;;;0.90;;
67193;SDS011;54121;53.508;49.422;2023-03-14T16:03:29;1.33;;;1.13;;
67193;SDS011;54121;53.508;49.422;2023-03-14T16:05:56;2.42;;;1.30;;
67193;SDS011;54121;53.508;49.422;2023-03-14T16:08:23;2.10;;;1.30;;
67193;SDS011;54121;53.508;49.422;2023-03-14T16:10:52;1.40;;;1.15;;